Time;durP1;ratioP1;P1;durP2;ratioP2;P2;SDS_P1;SDS_P2;PMS_P1;PMS_P2;Temp;Humidity;BMP_temperature;BMP_pressure;BME280_temperature;BME280_humidity;BME280_pressure;Samples;Min_cycle;Max_cycle;Signal;HPM_P1;HPM_P2
2021/12/13 00:01:41;;;;;;;66.60;25.02;;;9.70;99.90;;;;;;5035774;28;20505;-84
2021/12/13 00:04:27;;;;;;;64.30;25.70;;;9.70;99.90;;;;;;5035155;28;20401;-84
2021/12/13 00:06:58;;;;;;;77.00;28.02;;;9.70;99.90;;;;;;5018445;28;20445;-83
2021/12/13 00:09:26;;;;;;;76.65;28.58;;;9.60;99.90;;;;;;5020103;28;20128;-83
2021/12/13 00:11:57;;;;;;;67.72;25.70;;;9.70;99.90;;;;;;4998196;28;20041;-84
2021/12/13 00:14:27;;;;;;;80.90;28.15;;;10.00;99.90;;;;;;5016038;28;20398;-82
2021/12/13 00:17:21;;;;;;;87.35;28.60;;;10.90;99.90;;;;;;5015807;28;20472;-83
2021/12/13 00:20:06;;;;;;;89.25;30.55;;;11.70;99.90;;;;;;4992136;28;20053;-82
2021/12/13 00:22:42;;;;;;;77.53;29.23;;;9.70;99.90;;;;;;5016004;28;20132;-82
2021/12/13 00:25:17;;;;;;;92.75;31.52;;;11.90;99.90;;;;;;5033429;28;20064;-83
2021/12/13 00:28:10;;;;;;;87.18;31.17;;;9.70;99.90;;;;;;5061982;27;2027747;-81
2021/12/13 00:31:13;;;;;;;94.45;33.53;;;9.70;99.90;;;;;;5112640;28;20093;-82
2021/12/13 00:34:00;;;;;;;81.55;31.17;;;9.70;99.90;;;;;;5102844;28;20048;-83
2021/12/13 00:36:44;;;;;;;111.72;37.35;;;9.70;99.90;;;;;;5098087;28;20027;-81
2021/12/13 00:39:24;;;;;;;89.32;33.85;;;9.70;99.90;;;;;;5094774;28;20035;-83
2021/12/13 00:41:50;;;;;;;129.77;41.83;;;9.70;99.90;;;;;;5093355;28;20080;-81
2021/12/13 00:44:26;;;;;;;93.30;32.03;;;12.70;99.90;;;;;;5111477;28;20043;-81
2021/12/13 00:46:55;;;;;;;81.95;30.27;;;9.70;99.90;;;;;;5111914;28;20514;-83
2021/12/13 00:49:26;;;;;;;93.53;34.17;;;9.70;99.90;;;;;;5093993;28;20035;-83
2021/12/13 00:51:56;;;;;;;111.80;35.88;;;10.50;99.90;;;;;;5094669;28;20040;-81
2021/12/13 00:54:35;;;;;;;74.53;31.15;;;9.70;99.90;;;;;;5093316;28;20047;-82
2021/12/13 00:57:01;;;;;;;83.80;30.92;;;9.70;99.90;;;;;;5094328;28;20039;-81
2021/12/13 00:59:35;;;;;;;64.82;27.13;;;9.70;99.90;;;;;;5094361;28;20479;-82
2021/12/13 01:02:05;;;;;;;68.75;26.15;;;9.70;99.90;;;;;;5093205;28;20560;-83
2021/12/13 01:04:56;;;;;;;63.67;25.77;;;9.70;99.90;;;;;;5094970;28;20093;-83
2021/12/13 01:07:21;;;;;;;67.00;25.92;;;9.70;99.90;;;;;;5111183;28;20073;-82
2021/12/13 01:10:38;;;;;;;69.65;27.63;;;11.00;99.90;;;;;;5109634;28;20082;-82
2021/12/13 01:13:07;;;;;;;75.53;26.58;;;9.70;99.90;;;;;;5093958;28;20043;-82
2021/12/13 01:15:50;;;;;;;60.60;24.13;;;9.70;99.90;;;;;;5093541;28;20043;-83
2021/12/13 01:18:31;;;;;;;59.10;24.50;;;9.70;99.90;;;;;;5094223;28;20039;-82
2021/12/13 01:23:46;;;;;;;64.53;25.08;;;10.30;99.90;;;;;;5110321;28;20499;-82
2021/12/13 01:28:47;;;;;;;56.35;24.15;;;11.50;99.90;;;;;;5111022;28;20100;-82
2021/12/13 01:31:36;;;;;;;63.22;24.92;;;9.70;99.90;;;;;;5089934;28;20384;-83
2021/12/13 01:34:04;;;;;;;69.70;27.73;;;9.70;99.90;;;;;;5073522;28;20535;-81
2021/12/13 01:36:43;;;;;;;52.80;25.15;;;9.70;99.90;;;;;;5073029;28;20365;-81
2021/12/13 01:39:20;;;;;;;58.30;27.13;;;10.70;99.90;;;;;;5065472;28;20035;-83
2021/12/13 01:41:58;;;;;;;67.15;27.23;;;9.70;99.90;;;;;;5097113;28;20043;-82
2021/12/13 01:44:34;;;;;;;64.03;26.65;;;9.70;99.90;;;;;;5080020;28;20050;-82
2021/12/13 01:47:10;;;;;;;82.25;31.50;;;11.30;99.90;;;;;;5079792;28;20130;-81
2021/12/13 01:49:40;;;;;;;70.60;28.73;;;9.60;99.90;;;;;;5079473;28;20510;-82
2021/12/13 01:52:20;;;;;;;81.45;32.35;;;9.60;99.90;;;;;;5095810;28;20144;-81
2021/12/13 01:54:46;;;;;;;77.07;29.90;;;9.70;99.90;;;;;;5097025;28;20082;-81
2021/12/13 01:59:52;;;;;;;89.30;33.03;;;10.10;99.90;;;;;;5097016;28;20051;-81
2021/12/13 02:02:32;;;;;;;79.15;30.85;;;9.80;99.90;;;;;;5080287;28;20134;-82
2021/12/13 02:05:08;;;;;;;74.28;30.15;;;9.60;99.90;;;;;;5110555;28;20122;-82
2021/12/13 02:07:43;;;;;;;84.22;30.75;;;11.50;99.90;;;;;;5082918;28;20128;-82
2021/12/13 02:10:18;;;;;;;89.40;33.15;;;12.70;99.90;;;;;;5075968;28;20571;-82
2021/12/13 02:12:46;;;;;;;80.07;31.85;;;10.00;99.90;;;;;;5092898;28;20032;-82
2021/12/13 02:17:59;;;;;;;86.15;33.17;;;9.60;99.90;;;;;;5076037;28;20047;-82
2021/12/13 02:20:31;;;;;;;79.65;32.30;;;11.00;99.90;;;;;;5059337;28;20392;-82
2021/12/13 02:22:57;;;;;;;85.53;32.33;;;9.60;99.90;;;;;;5075794;28;20568;-82
2021/12/13 02:25:30;;;;;;;84.97;32.70;;;11.50;99.90;;;;;;5059643;28;20430;-82
2021/12/13 02:28:10;;;;;;;70.70;28.98;;;12.70;99.90;;;;;;5059416;28;20052;-82
2021/12/13 02:30:39;;;;;;;63.10;28.77;;;9.60;99.90;;;;;;5078176;28;20090;-82
2021/12/13 02:33:09;;;;;;;75.57;29.35;;;11.80;99.90;;;;;;5075061;28;20044;-82
2021/12/13 02:35:41;;;;;;;63.45;29.27;;;9.60;99.90;;;;;;5077976;28;20036;-82
2021/12/13 02:38:08;;;;;;;72.20;29.15;;;9.60;99.90;;;;;;5078839;28;20036;-82
2021/12/13 02:40:35;;;;;;;68.35;29.15;;;9.60;99.90;;;;;;5077323;28;20035;-81
2021/12/13 02:43:02;;;;;;;62.35;28.05;;;12.50;99.90;;;;;;5078775;28;20035;-82
2021/12/13 02:45:42;;;;;;;66.88;27.73;;;9.60;99.90;;;;;;5096242;28;20042;-82
2021/12/13 02:48:11;;;;;;;60.17;24.55;;;11.50;99.90;;;;;;5078083;28;20388;-82
2021/12/13 02:50:55;;;;;;;66.57;24.30;;;12.00;99.90;;;;;;5128968;27;20070;-82
2021/12/13 02:53:28;;;;;;;47.20;22.42;;;9.60;99.90;;;;;;5095716;28;20119;-82
2021/12/13 02:55:54;;;;;;;53.88;20.75;;;10.70;99.90;;;;;;5094316;28;20055;-82
2021/12/13 02:58:22;;;;;;;46.92;21.35;;;9.50;99.90;;;;;;5095964;28;20040;-83
2021/12/13 03:00:57;;;;;;;48.65;21.35;;;11.60;99.90;;;;;;5077938;28;20713;-82
2021/12/13 03:03:31;;;;;;;58.40;20.25;;;9.60;99.90;;;;;;5078708;28;20048;-82
2021/12/13 03:06:00;;;;;;;45.30;19.80;;;11.60;99.90;;;;;;5078703;28;20046;-82
2021/12/13 03:08:32;;;;;;;43.70;17.23;;;11.70;99.90;;;;;;5078337;28;20385;-82
2021/12/13 03:11:01;;;;;;;43.20;16.13;;;9.60;99.90;;;;;;5094087;28;20043;-82
2021/12/13 03:13:29;;;;;;;40.25;15.57;;;9.60;99.90;;;;;;5095728;28;20488;-81
2021/12/13 03:16:05;;;;;;;40.42;16.90;;;9.60;99.90;;;;;;5077725;28;20043;-82
2021/12/13 03:18:54;;;;;;;40.42;15.95;;;9.50;99.90;;;;;;5078527;28;20044;-81
2021/12/13 03:21:26;;;;;;;40.20;15.70;;;9.60;99.90;;;;;;5095425;28;20532;-82
2021/12/13 03:24:39;;;;;;;45.30;17.35;;;9.60;99.90;;;;;;5093736;28;20040;-82
2021/12/13 03:27:15;;;;;;;33.92;15.10;;;9.60;99.90;;;;;;5110905;27;20055;-81
2021/12/13 03:30:00;;;;;;;37.50;17.02;;;9.50;99.90;;;;;;5128736;27;20039;-82
2021/12/13 03:32:38;;;;;;;34.10;14.85;;;9.60;99.90;;;;;;5095494;28;20488;-82
2021/12/13 03:35:10;;;;;;;29.83;14.38;;;11.90;99.90;;;;;;5124687;27;20031;-81
2021/12/13 03:37:37;;;;;;;28.98;13.32;;;9.50;99.90;;;;;;5074182;28;20067;-81
2021/12/13 03:40:15;;;;;;;39.90;14.95;;;9.50;99.90;;;;;;5089911;28;20072;-81
2021/12/13 03:42:46;;;;;;;36.95;14.65;;;9.50;99.90;;;;;;5095426;28;20043;-82
2021/12/13 03:45:25;;;;;;;31.80;13.52;;;9.50;99.90;;;;;;5094289;28;20053;-82
2021/12/13 03:47:56;;;;;;;32.13;13.40;;;9.50;99.90;;;;;;5094752;28;20051;-82
2021/12/13 03:50:28;;;;;;;34.90;15.88;;;11.50;99.90;;;;;;5090445;28;20071;-82
2021/12/13 03:52:58;;;;;;;31.00;15.80;;;9.50;99.90;;;;;;5074219;28;20115;-82
2021/12/13 03:55:26;;;;;;;39.70;16.48;;;9.50;99.90;;;;;;5090942;28;20035;-82
2021/12/13 03:57:57;;;;;;;29.23;13.73;;;10.90;99.90;;;;;;5093880;28;20035;-82
2021/12/13 04:00:28;;;;;;;27.65;13.77;;;10.70;99.90;;;;;;5077478;28;20123;-82
2021/12/13 04:02:57;;;;;;;34.92;15.45;;;10.30;99.90;;;;;;5092866;28;20040;-83
2021/12/13 04:05:26;;;;;;;37.53;14.77;;;11.60;99.90;;;;;;5094175;28;20047;-83
2021/12/13 04:07:57;;;;;;;24.75;12.35;;;9.40;99.90;;;;;;5077489;28;20044;-82
2021/12/13 04:10:34;;;;;;;21.90;10.68;;;9.40;99.90;;;;;;5078038;28;20118;-82
2021/12/13 04:13:09;;;;;;;26.67;12.25;;;9.40;99.90;;;;;;5076595;28;20036;-82
2021/12/13 04:15:51;;;;;;;18.60;9.07;;;9.30;99.90;;;;;;5094450;28;20040;-83
2021/12/13 04:21:19;;;;;;;24.63;10.63;;;9.30;99.90;;;;;;5091126;28;20179;-83
2021/12/13 04:23:58;;;;;;;19.40;8.80;;;9.30;99.90;;;;;;5076896;28;20446;-82
2021/12/13 04:26:26;;;;;;;18.33;8.55;;;10.40;99.90;;;;;;5093538;28;20090;-82
2021/12/13 04:28:58;;;;;;;15.05;7.47;;;10.30;99.90;;;;;;5094186;28;20036;-82
2021/12/13 04:31:30;;;;;;;21.90;9.45;;;9.40;99.90;;;;;;5074413;28;20043;-82
2021/12/13 04:34:00;;;;;;;14.20;7.25;;;9.20;99.90;;;;;;5089870;28;20047;-82
2021/12/13 04:36:36;;;;;;;16.30;7.32;;;9.20;99.90;;;;;;5074226;28;20044;-82
2021/12/13 04:39:14;;;;;;;15.57;7.03;;;9.20;99.90;;;;;;5082585;28;20043;-82
2021/12/13 04:41:54;;;;;;;14.65;7.22;;;9.20;99.90;;;;;;5094417;28;20043;-81
2021/12/13 04:44:37;;;;;;;12.52;6.55;;;11.70;99.90;;;;;;5094523;28;20395;-82
2021/12/13 04:47:11;;;;;;;15.60;6.15;;;9.20;99.90;;;;;;5075207;28;20484;-82
2021/12/13 04:49:41;;;;;;;13.48;7.05;;;9.20;99.90;;;;;;5077731;28;20434;-83
2021/12/13 04:52:14;;;;;;;16.90;7.90;;;11.10;99.90;;;;;;5076911;28;20028;-82
2021/12/13 04:54:43;;;;;;;14.48;6.97;;;10.80;99.90;;;;;;5076475;28;20071;-81
2021/12/13 04:57:09;;;;;;;15.38;6.72;;;9.30;99.90;;;;;;5076772;28;20131;-81
2021/12/13 04:59:36;;;;;;;14.52;6.88;;;9.60;99.90;;;;;;5094136;28;20129;-81
2021/12/13 05:02:07;;;;;;;14.43;7.25;;;10.30;99.90;;;;;;5092500;28;20039;-82
2021/12/13 05:04:33;;;;;;;16.75;7.10;;;9.20;99.90;;;;;;5111403;28;20054;-82
2021/12/13 05:07:03;;;;;;;15.57;7.10;;;9.20;99.90;;;;;;5076577;28;20126;-81
2021/12/13 05:09:29;;;;;;;15.10;7.70;;;9.20;99.90;;;;;;5076300;28;20050;-81
2021/12/13 05:12:01;;;;;;;13.65;8.25;;;9.10;99.90;;;;;;5093757;28;20068;-82
2021/12/13 05:14:38;;;;;;;11.43;7.25;;;12.10;99.90;;;;;;5084095;28;20071;-82
2021/12/13 05:17:20;;;;;;;14.68;8.10;;;9.20;99.90;;;;;;5069161;28;20054;-81
2021/12/13 05:20:07;;;;;;;10.65;7.05;;;9.20;99.90;;;;;;5098007;28;20036;-82
2021/12/13 05:22:42;;;;;;;19.45;7.93;;;12.20;99.90;;;;;;5080639;28;20472;-80
2021/12/13 05:25:08;;;;;;;15.20;7.70;;;12.20;99.90;;;;;;5080518;28;20051;-80
2021/12/13 05:27:37;;;;;;;17.92;8.80;;;9.10;99.90;;;;;;5097654;28;20537;-80
2021/12/13 05:30:17;;;;;;;12.38;8.43;;;10.70;99.90;;;;;;5096673;28;20044;-80
2021/12/13 05:32:49;;;;;;;19.58;8.93;;;9.20;99.90;;;;;;5097399;28;20035;-81
2021/12/13 05:35:22;;;;;;;15.88;8.82;;;9.50;99.90;;;;;;5080619;28;20434;-81
2021/12/13 05:37:54;;;;;;;17.20;9.00;;;9.20;99.90;;;;;;5079710;28;20086;-80
2021/12/13 05:40:32;;;;;;;14.52;8.55;;;11.50;99.90;;;;;;5080372;28;20047;-80
2021/12/13 05:43:02;;;;;;;14.93;9.15;;;9.20;99.90;;;;;;5096332;28;20059;-81
2021/12/13 05:45:37;;;;;;;13.20;8.00;;;10.00;99.90;;;;;;5114353;28;20070;-81
2021/12/13 05:48:35;;;;;;;15.10;8.23;;;11.10;99.90;;;;;;5079683;28;20078;-82
2021/12/13 05:51:27;;;;;;;13.88;8.45;;;9.20;99.90;;;;;;5096061;28;20039;-82
2021/12/13 05:53:58;;;;;;;12.63;7.90;;;9.20;99.90;;;;;;5096631;28;20040;-81
2021/12/13 05:56:28;;;;;;;17.92;10.35;;;9.20;99.90;;;;;;5096813;28;20092;-80
2021/12/13 05:59:09;;;;;;;15.50;9.13;;;11.10;99.90;;;;;;5079209;28;20036;-80
2021/12/13 06:02:06;;;;;;;14.75;8.65;;;9.10;99.90;;;;;;5080491;28;20047;-81
2021/12/13 06:04:41;;;;;;;15.73;9.70;;;9.20;99.90;;;;;;5096283;28;20449;-80
2021/12/13 06:07:33;;;;;;;17.80;9.75;;;11.40;99.90;;;;;;5096593;28;20055;-80
2021/12/13 06:10:05;;;;;;;15.07;9.20;;;9.20;99.90;;;;;;5096682;28;20053;-81
2021/12/13 06:12:48;;;;;;;14.70;9.52;;;9.20;99.90;;;;;;5096165;28;20031;-80
2021/12/13 06:15:17;;;;;;;16.27;8.82;;;9.20;99.90;;;;;;5059716;28;20071;-80
2021/12/13 06:18:03;;;;;;;12.77;8.57;;;11.80;99.90;;;;;;5076122;28;20389;-80
2021/12/13 06:20:40;;;;;;;14.20;8.77;;;12.40;99.90;;;;;;5028438;28;20055;-80
2021/12/13 06:23:11;;;;;;;17.23;9.18;;;9.40;99.90;;;;;;5096130;28;20055;-80
2021/12/13 06:25:38;;;;;;;16.73;9.00;;;9.40;99.90;;;;;;5078956;28;20061;-80
2021/12/13 06:28:06;;;;;;;15.40;9.07;;;9.00;99.90;;;;;;5077795;28;20131;-80
2021/12/13 06:30:35;;;;;;;14.10;8.50;;;9.30;99.90;;;;;;5079648;28;20032;-80
2021/12/13 06:33:07;;;;;;;15.60;8.90;;;12.10;99.90;;;;;;5074926;28;20039;-81
2021/12/13 06:35:50;;;;;;;15.57;8.95;;;11.70;99.90;;;;;;5059250;28;20043;-81
2021/12/13 06:38:19;;;;;;;13.48;7.32;;;9.10;99.90;;;;;;5085312;28;20399;-82
2021/12/13 06:41:15;;;;;;;12.63;8.15;;;8.50;99.90;;;;;;5095800;28;20047;-82
2021/12/13 06:43:51;;;;;;;13.80;8.80;;;9.20;99.90;;;;;;5082468;28;20516;-82
2021/12/13 06:46:22;;;;;;;16.95;9.30;;;9.20;99.90;;;;;;5091927;28;20051;-82
2021/12/13 06:48:59;;;;;;;15.48;8.93;;;9.20;99.90;;;;;;5075595;28;20047;-80
2021/12/13 06:51:54;;;;;;;12.95;8.88;;;8.90;99.90;;;;;;5093080;28;20039;-82
2021/12/13 06:54:37;;;;;;;14.52;7.95;;;9.70;99.90;;;;;;5095185;28;20047;-83
2021/12/13 06:57:14;;;;;;;16.35;9.15;;;9.10;99.90;;;;;;5095129;28;20429;-83
2021/12/13 06:59:52;;;;;;;12.48;9.02;;;11.40;99.90;;;;;;5096155;28;20040;-82
2021/12/13 07:02:25;;;;;;;14.35;7.85;;;12.20;99.90;;;;;;5095771;28;20497;-82
2021/12/13 07:05:02;;;;;;;16.55;9.52;;;9.80;99.90;;;;;;5095285;28;20071;-83
2021/12/13 07:07:55;;;;;;;14.82;9.07;;;9.10;99.90;;;;;;5078026;28;20047;-83
2021/12/13 07:10:32;;;;;;;13.25;8.68;;;9.00;99.90;;;;;;5069790;28;20066;-82
2021/12/13 07:13:03;;;;;;;16.55;10.45;;;9.10;99.90;;;;;;5091524;28;20043;-82
2021/12/13 07:15:37;;;;;;;13.90;9.63;;;9.10;99.90;;;;;;5074982;28;20044;-82
2021/12/13 07:18:08;;;;;;;15.52;9.85;;;9.10;99.90;;;;;;5108671;28;20061;-82
2021/12/13 07:21:08;;;;;;;16.98;10.60;;;9.10;99.90;;;;;;5123226;27;20040;-82
2021/12/13 07:24:08;;;;;;;14.43;10.25;;;9.10;99.90;;;;;;5078611;28;20408;-83
2021/12/13 07:26:37;;;;;;;17.63;11.23;;;9.10;99.90;;;;;;5074819;28;20048;-82
2021/12/13 07:29:11;;;;;;;16.27;10.82;;;9.10;99.90;;;;;;5090640;28;20036;-82
2021/12/13 07:31:39;;;;;;;17.52;11.25;;;9.10;99.90;;;;;;5076351;28;20104;-81
2021/12/13 07:34:18;;;;;;;18.35;11.25;;;9.10;99.90;;;;;;5078145;28;20480;-83
2021/12/13 07:36:52;;;;;;;17.38;11.27;;;9.00;99.90;;;;;;5093946;28;20047;-81
2021/12/13 07:39:19;;;;;;;19.38;12.55;;;9.10;99.90;;;;;;5078366;28;20062;-82
2021/12/13 07:41:49;;;;;;;19.65;12.65;;;9.10;99.90;;;;;;5078408;28;20043;-81
2021/12/13 07:44:47;;;;;;;17.85;12.43;;;12.80;99.90;;;;;;5077653;28;20130;-82
2021/12/13 07:47:24;;;;;;;18.48;11.00;;;9.20;99.90;;;;;;5096360;28;20132;-82
2021/12/13 07:50:02;;;;;;;18.33;12.15;;;9.10;99.90;;;;;;5069217;28;20031;-82
2021/12/13 07:52:28;;;;;;;18.77;13.95;;;;;;;;;;5094754;28;20096;-82
2021/12/13 07:54:55;;;;;;;19.00;11.85;;;;;;;;;;5094284;28;20438;-81
2021/12/13 07:57:29;;;;;;;17.90;13.10;;;9.10;99.90;;;;;;5077219;28;20086;-81
2021/12/13 07:59:56;;;;;;;22.58;12.80;;;11.00;99.90;;;;;;5112920;28;20043;-81
2021/12/13 08:02:33;;;;;;;19.05;14.15;;;8.90;99.90;;;;;;5077557;28;20051;-82
2021/12/13 08:05:14;;;;;;;19.02;12.75;;;9.10;99.90;;;;;;5076449;28;20050;-82
2021/12/13 08:07:54;;;;;;;19.65;12.05;;;12.10;99.90;;;;;;5077744;28;20043;-82
2021/12/13 08:10:35;;;;;;;21.20;12.75;;;9.50;99.90;;;;;;5093046;28;20043;-81
2021/12/13 08:13:07;;;;;;;18.10;12.15;;;9.20;99.90;;;;;;5094116;28;20489;-81
2021/12/13 08:15:37;;;;;;;18.67;11.68;;;9.10;99.90;;;;;;5078070;28;20050;-81
2021/12/13 08:18:11;;;;;;;17.30;12.65;;;9.20;99.90;;;;;;5077261;28;20105;-81
2021/12/13 08:20:47;;;;;;;18.50;12.57;;;9.20;99.90;;;;;;5094515;28;20488;-81
2021/12/13 08:23:26;;;;;;;19.95;13.30;;;9.10;99.90;;;;;;5093173;28;20514;-81
2021/12/13 08:25:57;;;;;;;17.17;11.70;;;9.20;99.90;;;;;;5076515;28;20032;-82
2021/12/13 08:28:34;;;;;;;18.83;12.02;;;9.20;99.90;;;;;;5076960;28;20055;-81
2021/12/13 08:31:01;;;;;;;21.35;14.13;;;9.20;99.90;;;;;;5059229;28;20040;-81
2021/12/13 08:33:38;;;;;;;19.10;12.40;;;11.80;99.90;;;;;;5067680;28;20043;-80
2021/12/13 08:36:16;;;;;;;20.25;14.55;;;10.10;99.90;;;;;;5093916;28;20055;-80
2021/12/13 08:39:02;;;;;;;18.88;11.70;;;9.20;99.90;;;;;;5076669;28;20092;-80
2021/12/13 08:41:39;;;;;;;15.90;12.73;;;9.30;99.90;;;;;;5077351;28;20082;-80
2021/12/13 08:44:14;;;;;;;23.63;13.07;;;9.30;99.90;;;;;;5076435;28;20425;-80
2021/12/13 08:46:43;;;;;;;;;;;9.30;99.90;;;;;;5076091;28;20097;-80
2021/12/13 08:49:29;;;;;;;14.77;11.15;;;9.20;99.90;;;;;;5080299;28;19919;-81
2021/12/13 08:52:03;;;;;;;13.93;11.30;;;9.20;99.90;;;;;;5097653;28;20419;-76
2021/12/13 08:54:34;;;;;;;15.82;11.13;;;9.20;99.90;;;;;;5097284;28;20119;-79
2021/12/13 08:57:04;;;;;;;15.93;10.02;;;9.40;99.90;;;;;;5097098;28;20039;-78
2021/12/13 08:59:30;;;;;;;15.57;10.80;;;9.40;99.90;;;;;;5096570;28;20047;-75
2021/12/13 09:02:04;;;;;;;18.13;11.40;;;9.50;99.90;;;;;;5076986;28;20039;-73
2021/12/13 09:04:40;;;;;;;17.87;10.13;;;9.70;99.90;;;;;;5093619;28;20090;-73
2021/12/13 09:07:11;;;;;;;15.43;10.88;;;9.10;99.90;;;;;;5077039;28;20308;-76
2021/12/13 09:09:45;;;;;;;16.63;11.18;;;9.40;99.90;;;;;;5078611;28;20043;-74
2021/12/13 09:12:14;;;;;;;17.43;10.80;;;9.00;99.90;;;;;;5094741;28;20042;-74
2021/12/13 09:14:50;;;;;;;17.65;10.93;;;9.40;99.90;;;;;;5094478;28;20044;-74
2021/12/13 09:17:24;;;;;;;16.05;11.05;;;9.30;99.90;;;;;;5095678;28;20043;-78
2021/12/13 09:20:14;;;;;;;14.68;9.57;;;9.40;99.90;;;;;;5095726;28;20052;-78
2021/12/13 09:22:47;;;;;;;16.05;9.93;;;9.40;99.90;;;;;;5095676;28;20039;-79
2021/12/13 09:25:15;;;;;;;16.85;10.02;;;9.50;99.90;;;;;;5095877;28;20104;-79
2021/12/13 09:27:41;;;;;;;18.38;11.15;;;;;;;;;;5095794;28;20048;-78
2021/12/13 09:30:18;;;;;;;18.45;10.00;;;9.20;99.90;;;;;;5095129;28;20548;-74
2021/12/13 09:32:52;;;;;;;15.70;10.75;;;9.70;99.90;;;;;;5095306;28;20054;-78
2021/12/13 09:35:29;;;;;;;14.95;9.75;;;9.60;99.90;;;;;;5094845;28;20039;-76
2021/12/13 09:38:01;;;;;;;15.90;9.63;;;9.40;99.90;;;;;;5094515;28;20396;-78
2021/12/13 09:40:33;;;;;;;14.45;9.23;;;9.30;99.90;;;;;;5095485;28;20554;-72
2021/12/13 09:42:59;;;;;;;15.73;10.32;;;9.60;99.90;;;;;;5076592;28;20088;-73
2021/12/13 09:45:36;;;;;;;14.52;9.63;;;9.70;99.90;;;;;;5095594;28;20743;-79
2021/12/13 09:48:38;;;;;;;13.77;9.52;;;9.60;99.90;;;;;;5076967;28;20044;-81
2021/12/13 09:51:09;;;;;;;15.02;9.35;;;9.40;99.90;;;;;;5044249;28;20060;-80
2021/12/13 09:53:38;;;;;;;14.55;9.07;;;9.50;99.90;;;;;;5091322;28;20039;-75
2021/12/13 09:56:08;;;;;;;13.38;9.85;;;9.10;99.90;;;;;;5090015;28;20839;-72
2021/12/13 09:58:45;;;;;;;13.98;9.63;;;9.20;99.90;;;;;;5093045;28;20047;-80
2021/12/13 10:01:16;;;;;;;11.85;8.85;;;9.60;99.90;;;;;;5078904;28;20512;-79
2021/12/13 10:04:23;;;;;;;16.15;9.57;;;9.80;99.90;;;;;;5094329;28;20492;-77
2021/12/13 10:06:56;;;;;;;15.02;9.40;;;9.40;99.90;;;;;;5057517;28;20396;-81
2021/12/13 10:09:28;;;;;;;15.75;10.18;;;9.50;99.90;;;;;;5079959;28;20031;-80
2021/12/13 10:12:12;;;;;;;12.43;8.13;;;9.90;99.90;;;;;;5095807;28;20036;-81
2021/12/13 10:14:47;;;;;;;18.20;9.85;;;9.60;99.90;;;;;;5096858;28;20043;-81
2021/12/13 10:17:15;;;;;;;16.48;10.48;;;9.60;99.90;;;;;;5096663;28;20058;-81
2021/12/13 10:19:47;;;;;;;15.68;10.40;;;9.50;99.90;;;;;;5079232;28;20039;-81
2021/12/13 10:22:16;;;;;;;14.50;9.52;;;9.60;99.90;;;;;;5079126;28;20039;-81
2021/12/13 10:24:50;;;;;;;16.05;8.45;;;9.90;99.90;;;;;;5096035;28;20446;-81
2021/12/13 10:27:19;;;;;;;14.68;9.88;;;9.70;99.90;;;;;;5096507;28;20133;-82
2021/12/13 10:29:49;;;;;;;17.58;10.77;;;9.80;99.90;;;;;;5079580;28;20078;-81
2021/12/13 10:32:26;;;;;;;19.33;11.05;;;9.50;99.90;;;;;;5095566;28;20460;-82
2021/12/13 10:35:09;;;;;;;15.20;10.07;;;9.50;99.90;;;;;;5095952;28;20097;-80
2021/12/13 10:37:38;;;;;;;16.50;9.45;;;9.20;99.90;;;;;;5095370;28;20122;-80
2021/12/13 10:40:18;;;;;;;18.35;10.05;;;9.60;99.90;;;;;;5095018;28;20480;-78
2021/12/13 10:42:50;;;;;;;19.42;10.15;;;9.70;99.90;;;;;;5095627;28;20088;-83
2021/12/13 10:45:26;;;;;;;14.68;9.32;;;9.50;99.90;;;;;;5078416;28;20040;-81
2021/12/13 10:47:56;;;;;;;15.32;10.82;;;9.50;99.90;;;;;;5095595;28;20048;-80
2021/12/13 10:50:35;;;;;;;16.77;10.70;;;9.60;99.90;;;;;;5077694;28;20075;-79
2021/12/13 10:53:03;;;;;;;15.27;10.55;;;9.70;99.90;;;;;;5077275;28;20039;-82
2021/12/13 10:55:44;;;;;;;18.40;11.20;;;9.60;99.90;;;;;;5094703;28;20040;-81
2021/12/13 10:58:13;;;;;;;16.60;11.65;;;9.90;99.90;;;;;;5095208;28;20156;-75
2021/12/13 11:00:42;;;;;;;17.27;11.20;;;9.60;99.90;;;;;;5093186;27;20086;-81
2021/12/13 11:03:12;;;;;;;16.63;11.27;;;12.20;99.90;;;;;;5073087;28;20417;-81
2021/12/13 11:05:38;;;;;;;17.92;11.27;;;9.50;99.90;;;;;;5073712;28;20438;-81
2021/12/13 11:08:06;;;;;;;20.92;12.70;;;9.60;99.90;;;;;;5118944;27;20040;-82
2021/12/13 11:10:53;;;;;;;18.40;12.20;;;11.70;99.90;;;;;;5077053;28;20433;-82
2021/12/13 11:13:23;;;;;;;17.33;12.85;;;12.10;99.90;;;;;;5077376;28;20043;-81
2021/12/13 11:15:52;;;;;;;24.95;14.10;;;10.20;99.90;;;;;;5095232;28;20040;-81
2021/12/13 11:18:27;;;;;;;22.60;14.13;;;10.60;99.90;;;;;;5078515;28;20051;-82
2021/12/13 11:20:56;;;;;;;21.42;14.05;;;9.40;99.90;;;;;;5077846;28;20169;-81
2021/12/13 11:23:22;;;;;;;21.55;13.30;;;;;;;;;;5076973;28;20042;-81
2021/12/13 11:25:56;;;;;;;27.67;14.63;;;9.30;99.90;;;;;;5094439;28;20385;-81
2021/12/13 11:28:25;;;;;;;22.98;14.48;;;9.40;99.90;;;;;;5076990;28;20151;-79
2021/12/13 11:30:52;;;;;;;22.27;15.40;;;9.40;99.90;;;;;;5093576;28;20054;-81
2021/12/13 11:33:42;;;;;;;25.80;16.33;;;9.30;99.90;;;;;;5092341;28;20035;-80
2021/12/13 11:36:10;;;;;;;28.13;17.77;;;11.60;99.90;;;;;;5083932;28;20055;-82
2021/12/13 11:38:51;;;;;;;24.58;15.93;;;9.20;99.90;;;;;;5077539;28;20503;-80
2021/12/13 11:41:35;;;;;;;22.80;15.07;;;11.00;99.90;;;;;;5093792;28;20090;-78
2021/12/13 11:44:25;;;;;;;27.60;15.77;;;9.40;99.90;;;;;;5092626;28;20046;-75
2021/12/13 11:47:22;;;;;;;25.98;17.25;;;9.40;99.90;;;;;;5092860;28;20134;-78
2021/12/13 11:50:25;;;;;;;23.13;14.13;;;9.50;99.90;;;;;;5074713;28;20043;-76
2021/12/13 11:53:30;;;;;;;25.52;15.02;;;9.60;99.90;;;;;;5094096;28;20502;-79
2021/12/13 11:56:20;;;;;;;23.93;15.47;;;9.60;99.90;;;;;;5108661;28;20078;-80
2021/12/13 11:59:04;;;;;;;26.50;16.90;;;9.50;99.90;;;;;;5075939;28;20039;-77
2021/12/13 12:02:00;;;;;;;21.92;14.95;;;9.60;99.90;;;;;;5092172;28;20035;-76
2021/12/13 12:04:44;;;;;;;26.17;15.95;;;9.80;99.90;;;;;;5063986;28;20047;-79
2021/12/13 12:07:13;;;;;;;22.98;15.32;;;10.00;99.90;;;;;;5073860;28;20141;-77
2021/12/13 12:09:53;;;;;;;20.45;13.05;;;12.60;99.90;;;;;;5074940;28;20044;-80
2021/12/13 12:12:56;;;;;;;28.67;14.70;;;10.00;99.90;;;;;;5092141;28;20452;-80
2021/12/13 12:15:24;;;;;;;23.20;14.05;;;10.10;99.90;;;;;;5076598;28;20507;-79
2021/12/13 12:17:51;;;;;;;19.95;13.15;;;10.50;99.90;;;;;;5093657;28;20051;-80
2021/12/13 12:20:25;;;;;;;20.63;13.60;;;9.80;99.90;;;;;;5094584;28;20045;-81
2021/12/13 12:22:52;;;;;;;17.98;11.35;;;11.70;99.90;;;;;;5094529;28;20399;-81
2021/12/13 12:25:23;;;;;;;18.77;11.25;;;12.20;99.90;;;;;;5094227;28;20083;-82
2021/12/13 12:27:55;;;;;;;21.60;11.50;;;12.40;99.90;;;;;;5092959;28;20105;-77
2021/12/13 12:30:28;;;;;;;19.90;12.50;;;10.20;99.90;;;;;;5093398;28;20042;-77
2021/12/13 12:32:59;;;;;;;18.10;11.75;;;10.40;99.90;;;;;;5086587;28;20438;-82
2021/12/13 12:35:29;;;;;;;18.27;10.13;;;10.10;99.90;;;;;;5085151;28;20073;-80
2021/12/13 12:37:59;;;;;;;19.00;12.18;;;10.20;99.90;;;;;;5077458;28;20109;-77
2021/12/13 12:40:59;;;;;;;16.50;11.23;;;13.30;99.90;;;;;;5094828;28;20047;-78
2021/12/13 12:43:30;;;;;;;17.70;11.00;;;10.20;99.90;;;;;;5094390;28;20055;-79
2021/12/13 12:45:59;;;;;;;16.25;10.10;;;12.30;99.90;;;;;;5094014;28;20043;-79
2021/12/13 12:48:37;;;;;;;16.05;10.93;;;10.20;99.90;;;;;;5112017;28;20119;-79
2021/12/13 12:51:09;;;;;;;19.08;10.82;;;11.70;99.90;;;;;;5093879;28;20176;-80
2021/12/13 12:53:35;;;;;;;18.10;10.88;;;13.60;99.90;;;;;;5093646;28;20035;-78
2021/12/13 12:56:21;;;;;;;16.30;10.43;;;10.30;99.90;;;;;;5093275;28;20059;-79
2021/12/13 12:58:58;;;;;;;16.90;10.73;;;10.40;99.90;;;;;;5093447;28;20040;-77
2021/12/13 13:01:27;;;;;;;16.25;10.80;;;10.50;99.90;;;;;;5091942;28;20423;-79
2021/12/13 13:04:13;;;;;;;18.20;11.80;;;12.50;99.90;;;;;;5093556;28;20501;-80
2021/12/13 13:06:51;;;;;;;17.45;11.57;;;10.40;99.90;;;;;;5077220;28;20122;-81
2021/12/13 13:09:17;;;;;;;18.90;12.13;;;10.40;99.90;;;;;;5093789;28;20051;-81
2021/12/13 13:11:48;;;;;;;17.40;11.07;;;10.30;99.90;;;;;;5077143;28;20035;-81
2021/12/13 13:14:19;;;;;;;17.75;11.93;;;10.30;99.90;;;;;;5076822;28;20123;-81
2021/12/13 13:16:53;;;;;;;17.52;10.35;;;11.90;99.90;;;;;;5093773;28;20043;-79
2021/12/13 13:19:59;;;;;;;14.93;9.53;;;10.20;99.90;;;;;;5093762;28;20075;-75
2021/12/13 13:22:35;;;;;;;18.70;10.88;;;10.20;99.90;;;;;;5026069;28;20128;-76
2021/12/13 13:25:30;;;;;;;20.83;11.73;;;10.20;99.90;;;;;;5069463;28;20047;-78
2021/12/13 13:27:57;;;;;;;18.30;11.40;;;10.20;99.90;;;;;;5063065;28;20062;-78
2021/12/13 13:30:49;;;;;;;19.70;11.95;;;10.50;99.90;;;;;;5093402;28;20040;-75
2021/12/13 13:33:17;;;;;;;19.63;11.00;;;10.00;99.90;;;;;;5093821;28;20387;-80
2021/12/13 13:35:42;;;;;;;19.77;11.95;;;10.00;99.90;;;;;;5080135;28;20046;-80